Time;durP1;ratioP1;P1;durP2;ratioP2;P2;SDS_P1;SDS_P2;PMS_P1;PMS_P2;Temp;Humidity;BMP_temperature;BMP_pressure;BME280_temperature;BME280_humidity;BME280_pressure;Samples;Min_cycle;Max_cycle;Signal;HPM_P1;HPM_P2
2024/03/29 00:00:36;;;;;;;0.80;0.32;;;10.90;66.30;;;;;;4990740;28;20034;-63
2024/03/29 00:03:02;;;;;;;0.20;0.20;;;11.00;66.40;;;;;;4986214;28;20030;-63
2024/03/29 00:05:28;;;;;;;1.38;0.28;;;11.00;66.60;;;;;;4988837;28;20026;-63
2024/03/29 00:07:54;;;;;;;0.52;0.52;;;10.90;66.70;;;;;;4990174;28;20084;-63
2024/03/29 00:10:20;;;;;;;1.77;0.30;;;10.90;66.90;;;;;;4975175;28;20465;-63
2024/03/29 00:12:45;;;;;;;1.65;0.45;;;10.90;66.90;;;;;;4990698;28;20708;-63
2024/03/29 00:15:11;;;;;;;0.32;0.30;;;10.80;66.90;;;;;;4990332;28;20065;-63
2024/03/29 00:17:37;;;;;;;0.40;0.20;;;10.80;67.00;;;;;;4983193;28;20050;-63
2024/03/29 00:20:04;;;;;;;0.10;0.10;;;10.80;67.00;;;;;;4989992;28;20085;-64
2024/03/29 00:22:29;;;;;;;0.30;0.30;;;10.80;67.10;;;;;;4989348;28;20034;-64
2024/03/29 00:24:55;;;;;;;0.20;0.20;;;10.80;67.10;;;;;;4989382;28;20054;-64
2024/03/29 00:27:25;;;;;;;0.20;0.20;;;10.90;67.00;;;;;;4987962;28;20553;-64
2024/03/29 00:29:53;;;;;;;0.28;0.28;;;10.90;67.00;;;;;;4987853;28;20061;-64
2024/03/29 00:32:22;;;;;;;1.00;0.50;;;10.90;67.00;;;;;;4970408;28;20065;-63
2024/03/29 00:34:52;;;;;;;0.28;0.20;;;10.90;67.00;;;;;;4990123;28;20036;-63
2024/03/29 00:37:18;;;;;;;0.52;0.20;;;10.90;67.10;;;;;;4989755;28;20038;-63
2024/03/29 00:39:45;;;;;;;1.48;0.75;;;10.80;67.00;;;;;;4973403;28;20026;-63
2024/03/29 00:42:15;;;;;;;0.20;0.20;;;10.90;67.10;;;;;;4988776;28;20081;-63
2024/03/29 00:44:41;;;;;;;0.52;0.20;;;10.90;67.00;;;;;;4988772;28;20034;-63
2024/03/29 00:47:08;;;;;;;0.90;0.50;;;10.90;67.10;;;;;;4989677;28;20026;-64
2024/03/29 00:49:34;;;;;;;0.47;0.30;;;10.90;67.10;;;;;;4989203;28;20445;-63
2024/03/29 00:52:00;;;;;;;2.40;0.77;;;10.90;67.20;;;;;;4989601;28;20086;-63
2024/03/29 00:54:26;;;;;;;0.40;0.30;;;10.90;67.30;;;;;;4962389;28;20395;-63
2024/03/29 00:56:52;;;;;;;3.00;0.80;;;10.90;67.40;;;;;;4989177;28;20034;-63
2024/03/29 00:59:19;;;;;;;0.93;0.40;;;10.80;67.40;;;;;;4990026;28;20392;-63
2024/03/29 01:01:46;;;;;;;1.10;0.63;;;10.80;67.40;;;;;;4966490;28;20134;-63
2024/03/29 01:04:12;;;;;;;0.30;0.30;;;10.80;67.50;;;;;;4988969;28;20038;-64
2024/03/29 01:06:38;;;;;;;3.75;0.20;;;10.80;67.60;;;;;;4983761;28;20026;-64
2024/03/29 01:09:04;;;;;;;0.20;0.20;;;10.80;67.60;;;;;;4989897;28;20065;-64
2024/03/29 01:11:30;;;;;;;0.63;0.28;;;10.80;67.60;;;;;;4989513;28;20041;-64
2024/03/29 01:13:56;;;;;;;0.52;0.20;;;10.80;67.60;;;;;;4972192;28;20049;-63
2024/03/29 01:16:22;;;;;;;0.60;0.30;;;10.80;67.60;;;;;;4982718;28;20034;-64
2024/03/29 01:18:48;;;;;;;1.70;0.32;;;10.80;67.70;;;;;;4988667;28;20038;-66
2024/03/29 01:21:14;;;;;;;0.52;0.50;;;10.80;67.60;;;;;;4988312;28;20030;-66
2024/03/29 01:23:40;;;;;;;0.20;0.20;;;10.70;67.50;;;;;;4986219;28;20092;-66
2024/03/29 01:26:07;;;;;;;0.13;0.13;;;10.80;67.50;;;;;;4980655;28;20022;-66
2024/03/29 01:28:33;;;;;;;1.75;0.30;;;10.80;67.50;;;;;;4990064;28;20030;-66
2024/03/29 01:30:59;;;;;;;0.77;0.20;;;10.80;67.40;;;;;;4988266;28;20057;-66
2024/03/29 01:33:26;;;;;;;1.48;0.30;;;10.80;67.40;;;;;;4988323;28;20133;-66
2024/03/29 01:35:52;;;;;;;0.70;0.30;;;10.80;67.40;;;;;;4967687;28;20034;-63
2024/03/29 01:38:18;;;;;;;0.20;0.20;;;10.80;67.30;;;;;;4989447;28;20168;-63
2024/03/29 01:40:44;;;;;;;0.95;0.20;;;10.80;67.30;;;;;;4982344;28;20541;-66
2024/03/29 01:43:10;;;;;;;0.20;0.20;;;10.80;67.30;;;;;;4988798;28;20038;-63
2024/03/29 01:45:39;;;;;;;1.25;0.28;;;10.80;67.40;;;;;;4969686;28;20034;-64
2024/03/29 01:48:06;;;;;;;0.30;0.20;;;10.80;67.50;;;;;;4971177;28;20108;-64
2024/03/29 01:50:33;;;;;;;0.25;0.13;;;10.70;67.50;;;;;;4986152;28;20642;-64
2024/03/29 01:53:00;;;;;;;0.45;0.45;;;10.70;67.50;;;;;;4981958;28;20054;-64
2024/03/29 01:55:26;;;;;;;0.75;0.30;;;10.70;68.10;;;;;;4984453;28;20117;-64
2024/03/29 01:57:52;;;;;;;0.65;0.30;;;10.70;67.50;;;;;;4989392;28;20392;-64
2024/03/29 02:00:19;;;;;;;0.93;0.40;;;10.70;67.50;;;;;;4988243;28;20030;-63
2024/03/29 02:02:45;;;;;;;0.82;0.40;;;10.70;67.60;;;;;;4989517;28;20485;-63
2024/03/29 02:05:11;;;;;;;0.35;0.35;;;10.70;67.60;;;;;;4988244;28;20030;-66
2024/03/29 02:07:38;;;;;;;0.20;0.10;;;10.70;67.70;;;;;;4988799;28;20243;-66
2024/03/29 02:10:07;;;;;;;1.63;0.43;;;10.60;67.70;;;;;;4988896;28;20393;-63
2024/03/29 02:12:33;;;;;;;0.55;0.30;;;10.60;67.60;;;;;;4989234;28;20109;-66
2024/03/29 02:14:59;;;;;;;0.63;0.52;;;10.60;67.60;;;;;;4981804;28;20154;-63
2024/03/29 02:17:25;;;;;;;0.75;0.68;;;10.60;67.70;;;;;;4969197;28;20145;-66
2024/03/29 02:19:51;;;;;;;0.40;0.40;;;10.60;67.70;;;;;;4984962;28;20030;-63
2024/03/29 02:22:20;;;;;;;1.13;0.85;;;10.60;67.70;;;;;;4987922;28;20113;-66
2024/03/29 02:24:46;;;;;;;0.55;0.30;;;10.60;67.70;;;;;;4971339;28;20407;-66
2024/03/29 02:27:13;;;;;;;0.32;0.20;;;10.60;67.70;;;;;;4980717;28;20038;-66
2024/03/29 02:29:39;;;;;;;0.47;0.10;;;10.60;67.70;;;;;;4970247;28;20030;-66
2024/03/29 02:32:05;;;;;;;0.17;0.10;;;10.60;67.70;;;;;;4963174;28;20024;-66
2024/03/29 02:34:31;;;;;;;0.32;0.30;;;10.60;67.70;;;;;;4986068;28;20042;-66
2024/03/29 02:36:57;;;;;;;0.20;0.20;;;10.60;67.80;;;;;;4988403;28;20478;-63
2024/03/29 02:39:23;;;;;;;0.28;0.20;;;10.60;67.80;;;;;;4987558;28;20358;-66
2024/03/29 02:41:48;;;;;;;1.17;0.90;;;10.60;67.80;;;;;;4987320;28;20443;-66
2024/03/29 02:44:15;;;;;;;1.25;0.38;;;10.70;67.80;;;;;;4992424;28;20057;-63
2024/03/29 02:46:42;;;;;;;0.73;0.28;;;10.70;67.70;;;;;;4974127;28;20030;-63
2024/03/29 02:49:09;;;;;;;0.73;0.57;;;10.70;67.70;;;;;;4991933;28;20377;-64
2024/03/29 02:51:35;;;;;;;0.22;0.22;;;10.70;67.60;;;;;;4988353;28;20453;-66
2024/03/29 02:54:00;;;;;;;0.28;0.25;;;10.70;67.60;;;;;;4989062;28;20061;-66
2024/03/29 02:56:27;;;;;;;0.43;0.20;;;10.80;67.60;;;;;;4988693;28;20048;-63
2024/03/29 02:58:53;;;;;;;1.48;0.20;;;10.80;67.60;;;;;;4990820;28;20070;-64
2024/03/29 03:01:19;;;;;;;1.80;0.32;;;10.80;67.60;;;;;;4992164;28;20113;-64
2024/03/29 03:03:45;;;;;;;0.55;0.28;;;10.80;67.60;;;;;;4991278;28;20039;-63
2024/03/29 03:06:11;;;;;;;0.15;0.15;;;10.80;67.60;;;;;;4991244;28;20092;-66
2024/03/29 03:11:20;;;;;;;0.60;0.57;;;10.90;67.70;;;;;;4989101;28;20084;-66
2024/03/29 03:13:46;;;;;;;0.20;0.10;;;10.90;67.70;;;;;;4983909;28;20019;-66
2024/03/29 03:16:12;;;;;;;0.20;0.13;;;10.80;67.60;;;;;;4991445;28;20057;-67
2024/03/29 03:18:38;;;;;;;1.45;0.40;;;10.90;67.80;;;;;;4990538;28;20023;-66
2024/03/29 03:21:04;;;;;;;2.10;0.25;;;10.90;67.80;;;;;;4991162;28;20030;-66
2024/03/29 03:23:30;;;;;;;0.60;0.40;;;10.80;67.70;;;;;;4959168;28;20597;-63
2024/03/29 03:26:00;;;;;;;0.73;0.63;;;10.80;67.90;;;;;;4973998;28;20133;-66
2024/03/29 03:28:26;;;;;;;0.63;0.10;;;10.80;68.00;;;;;;4992009;28;20100;-63
2024/03/29 03:30:52;;;;;;;6.28;0.38;;;10.80;67.90;;;;;;4988112;28;20026;-66
2024/03/29 03:33:19;;;;;;;0.80;0.25;;;10.80;68.00;;;;;;4991568;28;20133;-66
2024/03/29 03:35:45;;;;;;;0.35;0.20;;;10.80;68.00;;;;;;4972746;28;20117;-64
2024/03/29 03:38:12;;;;;;;0.15;0.15;;;10.80;68.00;;;;;;4991762;28;20026;-64
2024/03/29 03:40:38;;;;;;;2.30;0.90;;;10.90;67.90;;;;;;4991121;28;20022;-63
2024/03/29 03:43:05;;;;;;;0.20;0.20;;;10.90;67.90;;;;;;4991970;28;20022;-66
2024/03/29 03:45:41;;;;;;;0.55;0.30;;;10.90;67.80;;;;;;4985131;28;20449;-63
2024/03/29 03:48:11;;;;;;;1.27;0.40;;;11.00;67.90;;;;;;4991142;28;20054;-66
2024/03/29 03:50:37;;;;;;;0.20;0.20;;;10.90;67.90;;;;;;4990319;28;20027;-63
2024/03/29 03:53:03;;;;;;;0.80;0.25;;;10.90;67.80;;;;;;4965334;28;20049;-66
2024/03/29 03:55:29;;;;;;;0.47;0.32;;;11.00;67.80;;;;;;4967964;28;20465;-63
2024/03/29 03:57:55;;;;;;;0.93;0.45;;;11.10;67.70;;;;;;4969099;28;20121;-65
2024/03/29 04:00:21;;;;;;;0.40;0.25;;;11.10;68.60;;;;;;4989811;28;20097;-65
2024/03/29 04:02:51;;;;;;;0.20;0.20;;;11.10;68.10;;;;;;4990731;28;20507;-63
2024/03/29 04:05:20;;;;;;;0.35;0.17;;;11.00;68.40;;;;;;4985677;28;20058;-62
2024/03/29 04:07:46;;;;;;;0.28;0.28;;;11.00;68.90;;;;;;4991139;28;20053;-63
2024/03/29 04:10:13;;;;;;;1.63;0.40;;;11.00;69.10;;;;;;4963031;28;20026;-63
2024/03/29 04:12:38;;;;;;;0.35;0.35;;;10.90;69.70;;;;;;4977526;28;20126;-63
2024/03/29 04:15:05;;;;;;;0.43;0.20;;;10.90;70.10;;;;;;4988860;28;20060;-65
2024/03/29 04:17:32;;;;;;;0.68;0.50;;;10.90;70.50;;;;;;4984029;28;20060;-65
2024/03/29 04:19:59;;;;;;;0.00;0.00;;;10.80;70.70;;;;;;4987239;28;20512;-65
2024/03/29 04:22:27;;;;;;;0.68;0.20;;;10.80;71.20;;;;;;4985620;28;20034;-65
2024/03/29 04:24:53;;;;;;;0.10;0.10;;;10.70;71.70;;;;;;4984834;28;20026;-65
2024/03/29 04:27:19;;;;;;;0.10;0.10;;;10.70;72.00;;;;;;4987262;28;20045;-65
2024/03/29 04:29:45;;;;;;;2.50;0.40;;;10.70;72.20;;;;;;4983073;28;20464;-65
2024/03/29 04:32:11;;;;;;;0.30;0.10;;;10.70;72.60;;;;;;4987910;28;20030;-65
2024/03/29 04:34:36;;;;;;;0.73;0.10;;;10.70;72.70;;;;;;4982625;28;20040;-65
2024/03/29 04:37:02;;;;;;;1.23;0.65;;;10.60;72.80;;;;;;4983454;28;20026;-66
2024/03/29 04:39:28;;;;;;;0.35;0.35;;;10.60;73.00;;;;;;4989570;28;20030;-66
2024/03/29 04:41:54;;;;;;;0.43;0.35;;;10.60;72.90;;;;;;4988941;28;20085;-65
2024/03/29 04:44:28;;;;;;;0.75;0.20;;;10.70;73.10;;;;;;4987018;28;20041;-65
2024/03/29 04:46:54;;;;;;;0.40;0.13;;;10.70;73.10;;;;;;4988072;28;20085;-65
2024/03/29 04:49:29;;;;;;;0.22;0.22;;;10.70;73.10;;;;;;4988848;28;20030;-65
2024/03/29 04:51:54;;;;;;;0.40;0.40;;;10.70;73.40;;;;;;4984418;28;20065;-65
2024/03/29 04:54:20;;;;;;;0.90;0.20;;;10.70;73.40;;;;;;4989365;28;20038;-66
2024/03/29 04:56:46;;;;;;;0.30;0.30;;;10.70;73.60;;;;;;4988478;28;20552;-66
2024/03/29 04:59:13;;;;;;;0.38;0.20;;;10.60;73.70;;;;;;4970242;28;20358;-67
2024/03/29 05:01:39;;;;;;;0.10;0.10;;;10.70;73.70;;;;;;4990253;28;20030;-66
2024/03/29 05:04:06;;;;;;;0.28;0.20;;;10.70;73.70;;;;;;4985837;28;20105;-66
2024/03/29 05:06:31;;;;;;;0.30;0.20;;;10.70;73.90;;;;;;4967925;28;20042;-66
2024/03/29 05:08:57;;;;;;;0.73;0.13;;;10.70;73.90;;;;;;4988019;28;20100;-66
2024/03/29 05:11:23;;;;;;;0.10;0.10;;;10.70;73.90;;;;;;4990288;28;20034;-66
2024/03/29 05:13:49;;;;;;;0.20;0.10;;;10.70;74.00;;;;;;4989785;28;20037;-66
2024/03/29 05:16:15;;;;;;;0.10;0.10;;;10.70;74.20;;;;;;4969277;28;20027;-66
2024/03/29 05:18:41;;;;;;;0.38;0.38;;;10.70;74.20;;;;;;4984417;28;20117;-64
2024/03/29 05:21:07;;;;;;;0.10;0.10;;;10.70;74.40;;;;;;4986832;28;20110;-64
2024/03/29 05:23:33;;;;;;;0.10;0.10;;;10.70;74.50;;;;;;4966596;28;20030;-64
2024/03/29 05:25:59;;;;;;;0.20;0.20;;;10.60;74.60;;;;;;4984570;28;20038;-65
2024/03/29 05:28:25;;;;;;;0.25;0.20;;;10.60;74.80;;;;;;4986957;28;20117;-64
2024/03/29 05:30:50;;;;;;;0.95;0.20;;;10.60;75.20;;;;;;4988887;28;20034;-64
2024/03/29 05:33:16;;;;;;;0.52;0.40;;;10.60;75.60;;;;;;4989514;28;20141;-64
2024/03/29 05:35:42;;;;;;;1.30;0.28;;;10.50;75.70;;;;;;4988648;28;20026;-64
2024/03/29 05:38:08;;;;;;;0.20;0.20;;;10.50;75.80;;;;;;4985111;28;20031;-64
2024/03/29 05:40:34;;;;;;;0.45;0.20;;;10.50;75.80;;;;;;4988571;28;20034;-65
2024/03/29 05:42:59;;;;;;;1.65;0.20;;;10.50;76.10;;;;;;4971257;28;20026;-65
2024/03/29 05:45:29;;;;;;;0.43;0.22;;;10.50;76.20;;;;;;4988971;28;20392;-64
2024/03/29 05:47:57;;;;;;;1.27;0.73;;;10.40;76.20;;;;;;4971885;28;20026;-65
2024/03/29 05:50:24;;;;;;;1.02;0.60;;;10.40;76.40;;;;;;4978786;28;20326;-64
2024/03/29 05:52:51;;;;;;;0.52;0.30;;;10.40;76.40;;;;;;4985140;28;20043;-67
2024/03/29 05:55:18;;;;;;;0.45;0.30;;;10.40;76.50;;;;;;4987533;28;20042;-66
2024/03/29 05:57:48;;;;;;;0.38;0.30;;;10.30;76.60;;;;;;4989172;28;20026;-66
2024/03/29 06:00:14;;;;;;;0.40;0.20;;;10.30;76.90;;;;;;4968875;28;20031;-66
2024/03/29 06:02:41;;;;;;;1.67;0.20;;;10.30;77.00;;;;;;4988530;28;20105;-66
2024/03/29 06:05:07;;;;;;;0.70;0.30;;;10.30;77.10;;;;;;4971216;28;20038;-66
2024/03/29 06:07:33;;;;;;;1.38;0.10;;;10.30;77.10;;;;;;4982058;28;20089;-66
2024/03/29 06:10:04;;;;;;;2.35;0.20;;;10.30;77.30;;;;;;4989200;28;20034;-65
2024/03/29 06:12:29;;;;;;;0.10;0.10;;;10.30;77.40;;;;;;4975033;28;20022;-66
2024/03/29 06:17:39;;;;;;;1.05;0.40;;;10.30;77.50;;;;;;4993347;28;20073;-67
2024/03/29 06:20:05;;;;;;;0.17;0.17;;;10.30;78.40;;;;;;4986036;28;20070;-66
2024/03/29 06:22:31;;;;;;;0.20;0.15;;;10.30;77.90;;;;;;4992274;28;20097;-65
2024/03/29 06:24:59;;;;;;;0.28;0.28;;;10.30;77.90;;;;;;4990222;28;20432;-66
2024/03/29 06:27:25;;;;;;;0.30;0.22;;;10.30;78.00;;;;;;4981657;28;20032;-67
2024/03/29 06:29:51;;;;;;;0.30;0.20;;;10.40;78.00;;;;;;4992726;28;20113;-65
2024/03/29 06:32:18;;;;;;;0.13;0.13;;;10.30;78.00;;;;;;4961777;28;20156;-65
2024/03/29 06:34:44;;;;;;;0.40;0.30;;;10.40;78.00;;;;;;4991541;28;20084;-65
2024/03/29 06:37:10;;;;;;;0.40;0.40;;;10.40;78.00;;;;;;4990427;28;20022;-65
2024/03/29 06:39:36;;;;;;;0.10;0.10;;;10.50;78.00;;;;;;4992470;28;20056;-65
2024/03/29 06:42:02;;;;;;;0.10;0.10;;;10.50;77.90;;;;;;4972452;28;20026;-65
2024/03/29 06:44:28;;;;;;;2.13;0.20;;;10.50;77.80;;;;;;4958528;28;20034;-65
2024/03/29 06:46:54;;;;;;;0.10;0.10;;;10.50;78.00;;;;;;4991370;28;20038;-65
2024/03/29 06:49:19;;;;;;;0.30;0.30;;;10.50;78.10;;;;;;4990762;28;20030;-66
2024/03/29 06:51:45;;;;;;;0.20;0.15;;;10.50;78.40;;;;;;4992241;28;20057;-65
2024/03/29 06:54:11;;;;;;;0.52;0.43;;;10.50;79.10;;;;;;4990822;28;20030;-66
2024/03/29 06:56:36;;;;;;;0.80;0.55;;;10.50;78.70;;;;;;4990404;28;20088;-66
2024/03/29 06:59:02;;;;;;;1.02;0.80;;;10.50;78.60;;;;;;4974650;28;20027;-66
2024/03/29 07:01:28;;;;;;;0.52;0.25;;;10.50;78.70;;;;;;4992615;28;20416;-66
2024/03/29 07:03:53;;;;;;;0.20;0.20;;;10.50;78.70;;;;;;4991941;28;20061;-65
2024/03/29 07:06:19;;;;;;;0.20;0.17;;;10.50;78.70;;;;;;4991637;28;20481;-66
2024/03/29 07:08:45;;;;;;;0.28;0.28;;;10.50;78.70;;;;;;4991934;28;20443;-66
2024/03/29 07:11:10;;;;;;;2.20;0.40;;;10.50;78.70;;;;;;4992328;28;20042;-66
2024/03/29 07:13:36;;;;;;;0.20;0.20;;;10.60;78.80;;;;;;4974575;28;20023;-65
2024/03/29 07:16:02;;;;;;;1.55;0.43;;;10.60;78.90;;;;;;4991688;28;20486;-65
2024/03/29 07:18:29;;;;;;;0.63;0.60;;;10.60;79.00;;;;;;4990931;28;20066;-65
2024/03/29 07:20:54;;;;;;;0.30;0.30;;;10.60;79.00;;;;;;4987238;28;20373;-65
2024/03/29 07:23:20;;;;;;;0.25;0.20;;;10.60;79.10;;;;;;4974756;28;20026;-65
2024/03/29 07:25:58;;;;;;;0.40;0.40;;;10.60;79.10;;;;;;4991436;28;20033;-65
2024/03/29 07:28:23;;;;;;;1.77;0.82;;;10.70;79.20;;;;;;4991268;28;20025;-65
2024/03/29 07:30:50;;;;;;;0.47;0.25;;;10.70;79.10;;;;;;4979585;28;20380;-65
2024/03/29 07:33:16;;;;;;;0.40;0.30;;;10.70;79.10;;;;;;4991522;28;20472;-66
2024/03/29 07:35:42;;;;;;;2.92;0.50;;;10.70;79.20;;;;;;4972358;28;20106;-65
2024/03/29 07:38:08;;;;;;;0.75;0.40;;;10.70;79.30;;;;;;4989272;28;20117;-66
2024/03/29 07:40:34;;;;;;;1.25;0.30;;;10.70;79.40;;;;;;4989417;28;20039;-65
2024/03/29 07:43:00;;;;;;;1.38;0.47;;;10.80;79.50;;;;;;4988468;28;20030;-65
2024/03/29 07:45:26;;;;;;;0.88;0.30;;;10.80;79.40;;;;;;4989581;28;20060;-65
2024/03/29 07:47:53;;;;;;;1.50;0.25;;;10.90;79.30;;;;;;4986231;28;20039;-65
2024/03/29 07:50:21;;;;;;;0.70;0.45;;;10.90;79.30;;;;;;4989974;28;20046;-66
2024/03/29 07:52:47;;;;;;;0.30;0.30;;;11.00;79.40;;;;;;4989086;28;20538;-66
2024/03/29 07:55:13;;;;;;;0.30;0.30;;;11.00;79.30;;;;;;4990886;28;20030;-69
2024/03/29 07:57:39;;;;;;;0.95;0.85;;;11.00;79.40;;;;;;4974116;28;20376;-69
2024/03/29 08:00:05;;;;;;;0.30;0.30;;;10.90;79.40;;;;;;4964821;28;20110;-65
2024/03/29 08:02:32;;;;;;;0.60;0.30;;;10.90;79.50;;;;;;4991409;28;20026;-67
2024/03/29 08:04:58;;;;;;;0.45;0.30;;;10.90;79.60;;;;;;4990798;28;20030;-64
2024/03/29 08:07:24;;;;;;;0.68;0.47;;;10.90;79.60;;;;;;4990668;28;20038;-66
2024/03/29 08:09:50;;;;;;;1.17;0.40;;;10.90;79.80;;;;;;4991002;28;20064;-65
2024/03/29 08:12:16;;;;;;;1.10;0.35;;;10.90;79.80;;;;;;4970221;28;20098;-65
2024/03/29 08:14:42;;;;;;;1.73;0.30;;;10.90;79.80;;;;;;4988498;28;20046;-65
2024/03/29 08:17:09;;;;;;;0.57;0.40;;;10.90;79.80;;;;;;4972972;28;20057;-66
2024/03/29 08:19:35;;;;;;;0.40;0.40;;;10.90;79.80;;;;;;4989282;28;20052;-65
2024/03/29 08:22:01;;;;;;;0.85;0.57;;;10.90;79.80;;;;;;4973268;28;20019;-66
2024/03/29 08:24:28;;;;;;;1.17;0.50;;;10.90;79.80;;;;;;4991742;28;20041;-66
2024/03/29 08:26:53;;;;;;;0.47;0.47;;;10.90;79.80;;;;;;4990614;28;20030;-65
2024/03/29 08:29:19;;;;;;;0.63;0.57;;;11.00;79.80;;;;;;4990473;28;20475;-65
2024/03/29 08:31:45;;;;;;;0.28;0.20;;;11.00;79.80;;;;;;4990446;28;20021;-66
2024/03/29 08:34:13;;;;;;;0.30;0.30;;;11.00;79.90;;;;;;4964959;28;20121;-65
2024/03/29 08:36:39;;;;;;;0.30;0.30;;;11.00;79.90;;;;;;4989618;28;20029;-65
2024/03/29 08:39:04;;;;;;;0.30;0.22;;;11.10;79.90;;;;;;4990265;28;20388;-66
2024/03/29 08:41:30;;;;;;;0.50;0.38;;;11.10;79.90;;;;;;4966247;28;20041;-66
2024/03/29 08:43:56;;;;;;;0.30;0.30;;;11.10;79.80;;;;;;4966659;28;20509;-67
2024/03/29 08:46:22;;;;;;;1.95;0.90;;;11.20;79.80;;;;;;4972778;28;20437;-66
2024/03/29 08:48:48;;;;;;;4.57;0.40;;;11.30;79.80;;;;;;4985319;28;20026;-66
2024/03/29 08:51:14;;;;;;;2.35;0.30;;;11.30;79.80;;;;;;4972139;28;20038;-66
2024/03/29 08:53:40;;;;;;;0.40;0.40;;;11.40;79.80;;;;;;4984705;28;20039;-66
2024/03/29 08:56:06;;;;;;;0.30;0.30;;;11.50;79.90;;;;;;4984555;28;20037;-67
2024/03/29 08:58:32;;;;;;;0.30;0.20;;;11.60;79.80;;;;;;4971390;28;20404;-65
2024/03/29 09:00:57;;;;;;;1.13;0.60;;;11.60;79.70;;;;;;4987536;28;20496;-65
2024/03/29 09:03:24;;;;;;;0.22;0.22;;;11.60;79.60;;;;;;4951577;28;20042;-65
2024/03/29 09:05:51;;;;;;;0.28;0.28;;;11.70;79.60;;;;;;4986152;28;20010;-65
2024/03/29 09:08:19;;;;;;;0.50;0.30;;;11.80;79.60;;;;;;4989536;28;20108;-65
2024/03/29 09:10:45;;;;;;;0.93;0.40;;;11.90;79.50;;;;;;4988916;28;20034;-65
2024/03/29 09:13:11;;;;;;;0.57;0.57;;;11.90;79.30;;;;;;4989293;28;20057;-65
2024/03/29 09:15:37;;;;;;;0.38;0.38;;;12.00;79.30;;;;;;4986622;28;20034;-65
2024/03/29 09:18:10;;;;;;;1.65;0.30;;;12.00;79.30;;;;;;4970188;28;20079;-65
2024/03/29 09:20:39;;;;;;;0.60;0.47;;;12.10;79.40;;;;;;4978398;28;20031;-65
2024/03/29 09:23:04;;;;;;;0.80;0.52;;;12.10;79.40;;;;;;4988751;28;20369;-65
2024/03/29 09:25:32;;;;;;;0.60;0.47;;;12.10;79.30;;;;;;4981581;28;20041;-66
2024/03/29 09:27:57;;;;;;;0.43;0.43;;;12.10;79.20;;;;;;4980839;28;20054;-65
2024/03/29 09:30:23;;;;;;;0.80;0.45;;;12.10;79.20;;;;;;4961888;28;20042;-65
2024/03/29 09:32:50;;;;;;;0.68;0.47;;;12.20;79.30;;;;;;4982445;28;20831;-65
2024/03/29 09:35:17;;;;;;;0.50;0.50;;;12.30;79.20;;;;;;4982808;28;20329;-65
2024/03/29 09:37:43;;;;;;;1.42;0.70;;;12.40;79.00;;;;;;4982022;28;20183;-65
2024/03/29 09:40:10;;;;;;;0.32;0.32;;;12.50;78.80;;;;;;4964206;28;20627;-65
2024/03/29 09:42:38;;;;;;;0.45;0.30;;;12.70;78.60;;;;;;4988630;28;20499;-65
2024/03/29 09:45:05;;;;;;;0.63;0.57;;;12.80;78.40;;;;;;4984664;28;20547;-65
2024/03/29 09:47:32;;;;;;;0.30;0.30;;;12.90;78.20;;;;;;4993035;28;20109;-65
2024/03/29 09:50:02;;;;;;;0.63;0.50;;;13.00;77.90;;;;;;4987426;28;20033;-65
2024/03/29 09:52:28;;;;;;;0.75;0.75;;;13.10;77.60;;;;;;4984610;28;20421;-65
2024/03/29 09:54:56;;;;;;;1.25;0.30;;;13.20;77.60;;;;;;4990195;28;20346;-67
2024/03/29 09:57:24;;;;;;;2.25;0.55;;;13.40;77.40;;;;;;4989401;28;20070;-67
2024/03/29 09:59:49;;;;;;;0.30;0.30;;;13.60;76.90;;;;;;4982339;28;20022;-67
2024/03/29 10:02:19;;;;;;;0.30;0.30;;;13.70;76.70;;;;;;4991750;28;20495;-67
2024/03/29 10:04:49;;;;;;;0.60;0.50;;;13.70;76.50;;;;;;4990077;28;20064;-67
2024/03/29 10:07:15;;;;;;;0.50;0.40;;;13.60;76.60;;;;;;4990837;28;20049;-68
2024/03/29 10:09:45;;;;;;;4.50;1.25;;;13.60;76.70;;;;;;4969954;28;20042;-67
2024/03/29 10:12:28;;;;;;;0.70;0.52;;;13.50;76.90;;;;;;4972929;28;20045;-64
2024/03/29 10:15:20;;;;;;;0.73;0.40;;;13.50;76.80;;;;;;4975794;28;20106;-64
2024/03/29 10:18:06;;;;;;;0.65;0.38;;;13.30;76.40;;;;;;4982156;28;20035;-72
2024/03/29 10:20:38;;;;;;;0.68;0.52;;;13.30;76.70;;;;;;4973988;28;20038;-66
2024/03/29 10:23:03;;;;;;;1.52;0.60;;;13.30;76.80;;;;;;4969908;28;20358;-67
2024/03/29 10:25:35;;;;;;;0.95;0.65;;;13.40;76.80;;;;;;4970660;28;20045;-70
2024/03/29 10:28:04;;;;;;;1.00;0.50;;;13.40;76.40;;;;;;4988310;28;20027;-71
2024/03/29 10:30:30;;;;;;;0.57;0.40;;;13.50;76.10;;;;;;4986681;28;20042;-70
2024/03/29 10:33:19;;;;;;;0.73;0.73;;;13.50;76.00;;;;;;4968823;28;20338;-70
2024/03/29 10:35:45;;;;;;;0.47;0.47;;;13.60;75.80;;;;;;4961264;28;20038;-66
2024/03/29 10:38:12;;;;;;;1.38;0.98;;;13.70;75.30;;;;;;4986250;28;20045;-64
2024/03/29 10:40:42;;;;;;;0.65;0.65;;;13.80;74.90;;;;;;4989312;28;20025;-69
2024/03/29 10:43:16;;;;;;;0.47;0.47;;;13.90;74.70;;;;;;4969803;28;20050;-69
2024/03/29 10:45:42;;;;;;;0.70;0.70;;;14.00;74.40;;;;;;4988177;28;20338;-65
2024/03/29 10:48:10;;;;;;;2.25;0.90;;;14.00;74.10;;;;;;4983564;28;20101;-64
2024/03/29 10:50:37;;;;;;;0.82;0.50;;;14.00;73.90;;;;;;4978454;28;20038;-64
2024/03/29 10:53:03;;;;;;;0.95;0.90;;;14.30;74.30;;;;;;4982817;28;20132;-64
2024/03/29 10:55:36;;;;;;;0.70;0.40;;;14.50;73.30;;;;;;4986527;28;20540;-68
2024/03/29 10:58:03;;;;;;;1.38;0.55;;;14.50;73.00;;;;;;4969826;28;20463;-68
2024/03/29 11:00:37;;;;;;;0.63;0.50;;;14.70;73.10;;;;;;4985401;28;20045;-63
2024/03/29 11:03:22;;;;;;;1.40;0.70;;;15.00;72.50;;;;;;4991044;28;20026;-64
2024/03/29 11:05:49;;;;;;;1.25;0.40;;;15.20;72.20;;;;;;4990157;28;20109;-64
2024/03/29 11:08:25;;;;;;;0.68;0.52;;;15.30;71.80;;;;;;4986457;28;20081;-63
2024/03/29 11:10:54;;;;;;;0.80;0.57;;;15.30;71.70;;;;;;4973585;28;20030;-64
2024/03/29 11:13:45;;;;;;;0.65;0.65;;;15.30;71.30;;;;;;4986798;28;20550;-64
2024/03/29 11:16:11;;;;;;;1.10;1.00;;;15.30;71.20;;;;;;4988630;28;20587;-63
2024/03/29 11:18:38;;;;;;;1.05;0.70;;;15.20;70.90;;;;;;4989019;28;20100;-63
2024/03/29 11:21:08;;;;;;;0.43;0.43;;;15.20;70.60;;;;;;4991390;28;20492;-69
2024/03/29 11:23:34;;;;;;;0.50;0.50;;;15.30;70.30;;;;;;4989726;28;20025;-68
2024/03/29 11:26:00;;;;;;;1.25;0.47;;;15.40;70.00;;;;;;4987839;28;20019;-68
2024/03/29 11:28:35;;;;;;;0.63;0.63;;;15.60;69.60;;;;;;4973630;28;20034;-68
2024/03/29 11:31:06;;;;;;;0.73;0.50;;;15.80;68.70;;;;;;4990352;28;20038;-68
2024/03/29 11:33:37;;;;;;;0.50;0.40;;;15.70;68.30;;;;;;4989985;28;20027;-63
2024/03/29 11:36:11;;;;;;;2.45;0.50;;;15.80;68.60;;;;;;4988089;28;20552;-64
2024/03/29 11:38:37;;;;;;;0.65;0.50;;;15.60;68.60;;;;;;4988174;28;20038;-63
2024/03/29 11:41:04;;;;;;;0.68;0.50;;;15.60;68.80;;;;;;4973267;28;20269;-67
2024/03/29 11:43:32;;;;;;;0.88;0.70;;;15.50;68.60;;;;;;4991094;28;20018;-67
2024/03/29 11:46:00;;;;;;;0.50;0.50;;;15.50;68.50;;;;;;4987194;28;20389;-67
2024/03/29 11:48:32;;;;;;;0.52;0.50;;;15.40;68.40;;;;;;4990099;28;20150;-67
2024/03/29 11:50:59;;;;;;;0.65;0.65;;;15.50;68.70;;;;;;4986796;28;20026;-67
2024/03/29 11:53:25;;;;;;;0.93;0.63;;;15.60;68.00;;;;;;4988233;28;20050;-67
2024/03/29 11:55:53;;;;;;;1.15;0.60;;;15.70;67.80;;;;;;4969333;28;20535;-63
2024/03/29 11:58:23;;;;;;;2.10;0.50;;;15.70;67.50;;;;;;4988301;28;20038;-63
2024/03/29 12:00:50;;;;;;;1.30;0.60;;;15.70;67.40;;;;;;4986375;28;20026;-63
2024/03/29 12:03:28;;;;;;;0.28;0.28;;;15.80;67.30;;;;;;4967012;28;20034;-67
2024/03/29 12:06:01;;;;;;;0.75;0.75;;;15.90;67.30;;;;;;4990190;28;20112;-68
2024/03/29 12:08:32;;;;;;;0.60;0.43;;;16.20;67.70;;;;;;4989381;28;20366;-63
2024/03/29 12:11:04;;;;;;;0.95;0.73;;;16.50;66.60;;;;;;4989971;28;20058;-67
2024/03/29 12:13:30;;;;;;;;;;;16.70;66.30;;;;;;4991795;28;20111;-67
2024/03/29 12:15:56;;;;;;;0.50;0.30;;;16.80;65.20;;;;;;4990229;28;20005;-67
2024/03/29 12:18:24;;;;;;;0.30;0.30;;;16.90;64.80;;;;;;4990312;28;20045;-67
2024/03/29 12:20:54;;;;;;;0.40;0.30;;;16.90;63.90;;;;;;4995186;28;20038;-67
2024/03/29 12:23:22;;;;;;;0.90;0.35;;;16.90;64.00;;;;;;4973142;28;20038;-68
2024/03/29 12:25:52;;;;;;;0.32;0.32;;;16.90;64.10;;;;;;4957929;28;20498;-68
2024/03/29 12:28:17;;;;;;;0.30;0.30;;;17.00;63.80;;;;;;4975866;28;20449;-68
2024/03/29 12:30:45;;;;;;;0.47;0.32;;;17.10;63.80;;;;;;4992038;28;20030;-68
2024/03/29 12:33:21;;;;;;;0.30;0.30;;;17.10;63.40;;;;;;4987358;28;20471;-68
2024/03/29 12:35:53;;;;;;;1.80;0.40;;;17.40;62.70;;;;;;4988890;28;20030;-68
2024/03/29 12:38:21;;;;;;;1.75;0.47;;;17.40;61.90;;;;;;4989744;28;20035;-68
2024/03/29 12:40:48;;;;;;;0.35;0.20;;;17.40;61.40;;;;;;4979701;28;20347;-67
2024/03/29 12:43:23;;;;;;;0.20;0.20;;;17.40;60.40;;;;;;4990196;28;20042;-68
2024/03/29 12:45:51;;;;;;;0.95;0.30;;;17.50;60.50;;;;;;4989055;28;20030;-68
2024/03/29 12:48:21;;;;;;;0.30;0.28;;;17.60;60.50;;;;;;4990030;28;20511;-68
2024/03/29 12:50:48;;;;;;;0.40;0.40;;;17.80;60.40;;;;;;4988536;28;20069;-68
2024/03/29 12:53:15;;;;;;;1.55;0.50;;;17.70;59.10;;;;;;4984495;28;20057;-68